createdAt,value
2023-03-06T00:01:10.055Z,12.73
2023-03-06T00:03:39.672Z,14.35
2023-03-06T00:06:08.620Z,18.45
2023-03-06T00:08:36.940Z,9.98
2023-03-06T00:11:05.608Z,10.65
2023-03-06T00:13:35.019Z,6.88
2023-03-06T00:16:03.376Z,12.30
2023-03-06T00:18:31.938Z,16.27
2023-03-06T00:21:01.524Z,12.32
2023-03-06T00:23:29.946Z,12.38
2023-03-06T00:25:58.780Z,19.95
2023-03-06T00:28:30.956Z,13.95
2023-03-06T00:30:59.777Z,15.40
2023-03-06T00:33:28.252Z,10.65
2023-03-06T00:35:57.579Z,6.70
2023-03-06T00:38:28.546Z,10.55
2023-03-06T00:40:58.136Z,12.77
2023-03-06T00:43:26.615Z,12.05
2023-03-06T00:45:54.865Z,10.38
2023-03-06T00:48:23.606Z,11.27
2023-03-06T00:50:53.540Z,7.38
2023-03-06T00:53:22.061Z,15.30
2023-03-06T00:55:53.061Z,11.35
2023-03-06T00:58:21.371Z,8.00
2023-03-06T01:00:50.623Z,8.38
2023-03-06T01:03:19.311Z,7.95
2023-03-06T01:05:47.580Z,8.70
2023-03-06T01:08:16.151Z,13.73
2023-03-06T01:10:44.718Z,6.75
2023-03-06T01:13:14.355Z,7.93
2023-03-06T01:15:43.086Z,9.90
2023-03-06T01:18:11.620Z,8.40
2023-03-06T01:20:40.162Z,10.25
2023-03-06T01:23:09.597Z,9.85
2023-03-06T01:25:37.842Z,7.45
2023-03-06T01:28:06.406Z,10.38
2023-03-06T01:30:35.978Z,8.35
2023-03-06T01:33:04.830Z,8.75
2023-03-06T01:35:33.426Z,10.45
2023-03-06T01:38:01.963Z,7.57
2023-03-06T01:40:32.860Z,11.88
2023-03-06T01:43:09.542Z,11.02
2023-03-06T01:46:22.830Z,6.70
2023-03-06T01:48:56.603Z,11.82
2023-03-06T01:51:30.571Z,8.67
2023-03-06T01:54:02.099Z,15.68
2023-03-06T01:56:30.856Z,9.45
2023-03-06T01:59:00.794Z,9.82
2023-03-06T02:01:31.049Z,8.60
2023-03-06T02:04:00.535Z,9.43
2023-03-06T02:06:30.502Z,8.38
2023-03-06T02:08:59.066Z,5.43
2023-03-06T02:11:27.804Z,8.57
2023-03-06T02:13:56.582Z,9.65
2023-03-06T02:16:28.873Z,7.32
2023-03-06T02:19:01.365Z,7.40
2023-03-06T02:21:35.400Z,10.25
2023-03-06T02:24:19.784Z,7.78
2023-03-06T02:26:50.414Z,11.93
2023-03-06T02:29:25.425Z,7.97
2023-03-06T02:31:54.033Z,7.15
2023-03-06T02:34:56.163Z,12.15
2023-03-06T02:37:26.224Z,8.27
2023-03-06T02:40:08.084Z,6.65
2023-03-06T02:42:37.798Z,10.13
2023-03-06T02:45:13.188Z,5.72
2023-03-06T02:47:42.603Z,10.27
2023-03-06T02:50:12.597Z,8.70
2023-03-06T02:52:41.219Z,9.90
2023-03-06T02:55:10.447Z,10.18
2023-03-06T02:57:40.073Z,7.20
2023-03-06T03:00:11.159Z,10.63
2023-03-06T03:02:39.736Z,8.15
2023-03-06T03:05:09.172Z,7.28
2023-03-06T03:10:12.595Z,9.60
2023-03-06T03:12:42.976Z,8.23
2023-03-06T03:15:12.450Z,7.72
2023-03-06T03:17:42.004Z,10.80
2023-03-06T03:20:15.246Z,11.25
2023-03-06T03:22:44.094Z,5.30
2023-03-06T03:25:13.208Z,8.48
2023-03-06T03:27:42.835Z,15.13
2023-03-06T03:30:13.164Z,10.02
2023-03-06T03:32:41.769Z,7.45
2023-03-06T03:35:12.829Z,11.55
2023-03-06T03:37:42.399Z,8.45
2023-03-06T03:40:12.670Z,7.53
2023-03-06T03:42:42.587Z,8.93
2023-03-06T03:45:12.942Z,9.45
2023-03-06T03:47:41.772Z,9.77
2023-03-06T03:50:12.070Z,10.00
2023-03-06T03:52:40.944Z,11.70
2023-03-06T03:55:10.462Z,14.35
2023-03-06T03:57:43.146Z,14.65
2023-03-06T04:00:16.400Z,9.88
2023-03-06T04:03:04.881Z,14.05
2023-03-06T04:05:39.990Z,7.38
2023-03-06T04:08:10.512Z,8.52
2023-03-06T04:10:42.787Z,8.68
2023-03-06T04:13:14.441Z,12.43
2023-03-06T04:15:45.509Z,8.63
2023-03-06T04:18:16.215Z,10.70
2023-03-06T04:20:46.530Z,10.10
2023-03-06T04:23:16.204Z,9.00
2023-03-06T04:25:44.865Z,12.60
2023-03-06T04:28:15.663Z,12.45
2023-03-06T04:30:44.526Z,12.55
2023-03-06T04:33:13.526Z,11.50
2023-03-06T04:35:43.756Z,8.48
2023-03-06T04:38:18.597Z,11.93
2023-03-06T04:40:49.564Z,8.77
2023-03-06T04:43:19.219Z,13.57
2023-03-06T04:45:47.860Z,9.75
2023-03-06T04:48:18.041Z,10.25
2023-03-06T04:50:46.904Z,10.00
2023-03-06T04:53:16.842Z,10.05
2023-03-06T04:55:45.114Z,15.82
2023-03-06T04:58:14.927Z,12.00
2023-03-06T05:00:44.689Z,9.50
2023-03-06T05:03:14.789Z,13.80
2023-03-06T05:05:43.537Z,10.95
2023-03-06T05:08:15.140Z,8.93
2023-03-06T05:10:44.150Z,14.57
2023-03-06T05:13:13.068Z,11.25
2023-03-06T05:15:41.986Z,12.63
2023-03-06T05:18:11.565Z,9.88
2023-03-06T05:20:40.125Z,10.25
2023-03-06T05:23:08.655Z,14.18
2023-03-06T05:25:38.941Z,14.57
2023-03-06T05:28:07.808Z,12.18
2023-03-06T05:30:36.733Z,11.05
2023-03-06T05:33:05.559Z,11.68
2023-03-06T05:35:35.465Z,11.95
2023-03-06T05:38:04.099Z,11.80
2023-03-06T05:40:32.686Z,14.70
2023-03-06T05:43:01.253Z,13.00
2023-03-06T05:45:29.943Z,15.02
2023-03-06T05:47:58.485Z,9.05
2023-03-06T05:50:26.984Z,10.10
2023-03-06T05:52:56.568Z,12.40
2023-03-06T05:55:25.134Z,18.45
2023-03-06T05:57:54.589Z,11.90
2023-03-06T06:00:24.650Z,10.70
2023-03-06T06:02:53.175Z,12.27
2023-03-06T06:05:21.722Z,12.20
2023-03-06T06:07:50.001Z,18.58
2023-03-06T06:10:19.927Z,11.77
2023-03-06T06:12:48.149Z,12.70
2023-03-06T06:15:16.733Z,16.98
2023-03-06T06:17:45.222Z,13.82
2023-03-06T06:20:14.792Z,17.35
2023-03-06T06:22:43.301Z,14.38
2023-03-06T06:25:11.557Z,15.55
2023-03-06T06:27:41.166Z,14.93
2023-03-06T06:30:12.617Z,16.45
2023-03-06T06:32:41.324Z,16.90
2023-03-06T06:35:10.356Z,14.95
2023-03-06T06:37:38.948Z,11.68
2023-03-06T06:40:08.763Z,12.60
2023-03-06T06:42:40.165Z,14.93
2023-03-06T06:45:12.681Z,18.08
2023-03-06T06:47:42.074Z,13.52
2023-03-06T06:50:14.032Z,13.32
2023-03-06T06:52:42.614Z,13.18
2023-03-06T06:55:12.051Z,13.75
2023-03-06T06:57:42.001Z,13.02
2023-03-06T07:00:15.778Z,18.90
2023-03-06T07:02:44.593Z,17.65
2023-03-06T07:05:13.318Z,13.77
2023-03-06T07:07:41.618Z,13.85
2023-03-06T07:10:15.304Z,12.13
2023-03-06T07:12:43.990Z,13.70
2023-03-06T07:15:16.598Z,19.67
2023-03-06T07:17:45.253Z,18.00
2023-03-06T07:20:13.819Z,12.35
2023-03-06T07:22:50.997Z,14.52
2023-03-06T07:25:22.614Z,13.60
2023-03-06T07:27:54.447Z,17.55
2023-03-06T07:30:25.568Z,17.98
2023-03-06T07:32:55.307Z,18.25
2023-03-06T07:35:24.454Z,16.30
2023-03-06T07:37:53.049Z,16.58
2023-03-06T07:40:26.150Z,16.05
2023-03-06T07:43:06.087Z,13.63
2023-03-06T07:45:46.998Z,12.82
2023-03-06T07:48:15.928Z,11.90
2023-03-06T07:50:44.696Z,16.50
2023-03-06T07:53:13.389Z,12.77
2023-03-06T07:55:42.401Z,19.05
2023-03-06T07:58:11.007Z,14.00
2023-03-06T08:00:39.547Z,23.10
2023-03-06T08:03:11.190Z,15.57
2023-03-06T08:05:39.851Z,16.23
2023-03-06T08:08:09.141Z,13.30
2023-03-06T08:10:38.012Z,20.42
2023-03-06T08:13:06.600Z,16.33
2023-03-06T08:15:35.150Z,19.30
2023-03-06T08:18:03.712Z,14.90
2023-03-06T08:20:33.312Z,15.25
2023-03-06T08:23:01.817Z,15.70
2023-03-06T08:25:30.473Z,14.13
2023-03-06T08:27:59.037Z,14.00
2023-03-06T08:30:27.556Z,13.32
2023-03-06T08:32:55.994Z,19.25
2023-03-06T08:35:24.886Z,15.68
2023-03-06T08:37:54.836Z,17.23
2023-03-06T08:40:23.412Z,13.98
2023-03-06T08:42:52.162Z,15.68
2023-03-06T08:45:20.814Z,14.65
2023-03-06T08:47:49.329Z,13.15
2023-03-06T08:50:18.942Z,13.80
2023-03-06T08:52:47.289Z,14.82
2023-03-06T08:55:17.170Z,14.27
2023-03-06T08:57:46.451Z,16.23
2023-03-06T09:00:16.279Z,12.00
2023-03-06T09:02:44.832Z,16.15
2023-03-06T09:05:13.351Z,17.27
2023-03-06T09:07:41.870Z,13.68
2023-03-06T09:10:17.894Z,15.85
2023-03-06T09:12:51.343Z,20.00
2023-03-06T09:15:21.845Z,11.55
2023-03-06T09:17:50.828Z,12.98
2023-03-06T09:20:19.783Z,13.38
2023-03-06T09:22:48.536Z,13.07
2023-03-06T09:25:20.477Z,14.52
2023-03-06T09:28:01.937Z,15.70
2023-03-06T09:30:37.382Z,17.02
2023-03-06T09:33:06.297Z,22.73
2023-03-06T09:35:34.895Z,13.45
2023-03-06T09:38:03.117Z,19.83
2023-03-06T09:40:52.523Z,15.68
2023-03-06T09:43:26.615Z,17.35
2023-03-06T09:45:55.437Z,14.77
2023-03-06T09:48:37.587Z,16.17
2023-03-06T09:51:13.542Z,16.10
2023-03-06T09:53:59.995Z,16.25
2023-03-06T09:56:33.794Z,14.77
2023-03-06T09:59:18.281Z,18.63
2023-03-06T10:01:56.034Z,15.45
2023-03-06T10:04:37.217Z,19.08
2023-03-06T10:07:15.638Z,15.15
2023-03-06T10:09:51.730Z,16.00
2023-03-06T10:12:26.066Z,15.13
2023-03-06T10:15:13.059Z,15.70
2023-03-06T10:17:43.622Z,15.50
2023-03-06T10:20:20.705Z,19.85
2023-03-06T10:23:11.249Z,20.40
2023-03-06T10:25:49.917Z,18.08
2023-03-06T10:28:25.523Z,21.30
2023-03-06T10:31:01.252Z,19.38
2023-03-06T10:33:43.621Z,15.10
2023-03-06T10:36:16.165Z,14.93
2023-03-06T10:38:46.050Z,13.75
2023-03-06T10:41:27.448Z,14.68
2023-03-06T10:44:23.633Z,16.63
2023-03-06T10:46:54.775Z,21.40
2023-03-06T10:49:31.954Z,17.15
2023-03-06T10:52:04.242Z,20.27
2023-03-06T10:54:34.931Z,15.80
2023-03-06T10:57:26.218Z,19.05
2023-03-06T10:59:58.627Z,15.23
2023-03-06T11:02:31.339Z,14.63
2023-03-06T11:05:02.190Z,11.65
2023-03-06T11:07:32.747Z,16.02
2023-03-06T11:10:16.778Z,14.13
2023-03-06T11:12:56.720Z,11.23
2023-03-06T11:15:27.583Z,13.25
2023-03-06T11:18:00.307Z,13.10
2023-03-06T11:20:50.158Z,13.13
2023-03-06T11:23:22.812Z,16.60
2023-03-06T11:25:57.202Z,14.80
2023-03-06T11:28:29.797Z,15.63
2023-03-06T11:31:04.854Z,13.27
2023-03-06T11:33:41.578Z,17.80
2023-03-06T11:36:16.725Z,13.98
2023-03-06T11:38:50.905Z,17.42
2023-03-06T11:41:32.420Z,11.32
2023-03-06T11:44:12.134Z,15.00
2023-03-06T11:46:48.641Z,14.48
2023-03-06T11:49:25.328Z,14.15
2023-03-06T11:51:58.668Z,11.52
2023-03-06T11:54:27.619Z,10.55
2023-03-06T11:57:00.642Z,13.27
2023-03-06T12:00:02.275Z,14.68
2023-03-06T12:03:00.233Z,12.30
2023-03-06T12:05:38.133Z,10.00
2023-03-06T12:08:45.009Z,10.30
2023-03-06T12:11:21.344Z,11.18
2023-03-06T12:14:06.298Z,13.60
2023-03-06T12:17:02.597Z,11.32
2023-03-06T12:19:49.836Z,9.85
2023-03-06T12:22:53.295Z,12.73
2023-03-06T12:25:36.370Z,27.30
2023-03-06T12:28:38.410Z,10.35
2023-03-06T12:31:28.865Z,11.25
2023-03-06T12:34:23.562Z,11.85
2023-03-06T12:37:09.613Z,12.27
2023-03-06T12:39:56.864Z,14.30
2023-03-06T12:42:42.314Z,13.25
2023-03-06T12:45:27.654Z,18.10
2023-03-06T12:47:58.109Z,14.73
2023-03-06T12:50:28.749Z,13.32
2023-03-06T12:53:03.035Z,13.13
2023-03-06T12:55:41.412Z,12.23
2023-03-06T12:58:35.686Z,10.20
2023-03-06T13:01:10.481Z,11.23
2023-03-06T13:06:54.140Z,11.38
2023-03-06T13:09:34.581Z,12.52
2023-03-06T13:12:26.743Z,13.52
2023-03-06T13:15:00.691Z,12.18
2023-03-06T13:17:36.824Z,8.13
2023-03-06T13:20:40.076Z,11.88
2023-03-06T13:23:51.599Z,8.80
2023-03-06T13:26:55.668Z,9.80
2023-03-06T13:30:21.557Z,14.00
2023-03-06T13:32:52.771Z,11.75
2023-03-06T13:35:53.548Z,9.63
2023-03-06T13:38:38.635Z,13.82
2023-03-06T13:44:47.305Z,7.32
2023-03-06T13:48:33.837Z,13.18
2023-03-06T13:50:47.557Z,8.70
2023-03-06T13:54:17.297Z,9.70
2023-03-06T13:57:17.613Z,12.15
2023-03-06T14:00:44.476Z,7.25
2023-03-06T14:04:00.855Z,8.98
2023-03-06T14:06:53.915Z,7.63
2023-03-06T14:09:30.329Z,8.05
2023-03-06T14:12:03.435Z,7.00
2023-03-06T14:14:41.193Z,5.03
2023-03-06T14:17:26.487Z,6.38
2023-03-06T14:19:55.347Z,6.30
2023-03-06T14:22:25.718Z,8.25
2023-03-06T14:25:00.596Z,7.03
2023-03-06T14:27:49.404Z,7.32
2023-03-06T14:30:20.936Z,11.68
2023-03-06T14:32:54.634Z,7.53
2023-03-06T14:35:28.177Z,6.43
2023-03-06T14:38:00.182Z,13.13
2023-03-06T14:40:34.372Z,6.28
2023-03-06T14:43:18.748Z,7.63
2023-03-06T14:45:52.504Z,5.30
2023-03-06T14:48:22.259Z,6.65
2023-03-06T14:50:53.782Z,5.05
2023-03-06T14:53:27.780Z,4.80
2023-03-06T14:56:00.084Z,7.03
2023-03-06T14:58:34.465Z,3.63
2023-03-06T15:01:06.782Z,8.85
2023-03-06T15:03:45.488Z,4.47
2023-03-06T15:06:21.061Z,4.70
2023-03-06T15:08:56.893Z,5.50
2023-03-06T15:11:25.542Z,3.83
2023-03-06T15:14:03.836Z,5.35
2023-03-06T15:16:32.705Z,3.67
2023-03-06T15:19:03.677Z,8.52
2023-03-06T15:21:36.626Z,5.95
2023-03-06T15:24:33.004Z,4.78
2023-03-06T15:27:06.000Z,5.78
2023-03-06T15:29:38.760Z,5.80
2023-03-06T15:32:42.395Z,9.05
2023-03-06T15:35:32.700Z,8.02
2023-03-06T15:38:01.849Z,7.35
2023-03-06T15:40:32.906Z,10.82
2023-03-06T15:43:01.974Z,9.15
2023-03-06T15:45:31.887Z,14.70
2023-03-06T15:48:00.359Z,12.70
2023-03-06T15:50:30.475Z,9.65
2023-03-06T15:52:58.945Z,10.88
2023-03-06T15:55:27.801Z,5.82
2023-03-06T15:57:59.615Z,11.40
2023-03-06T16:00:30.765Z,10.65
2023-03-06T16:02:59.808Z,13.30
2023-03-06T16:05:30.605Z,16.08
2023-03-06T16:07:59.109Z,12.57
2023-03-06T16:10:31.760Z,13.30
2023-03-06T16:13:06.187Z,16.60
2023-03-06T16:15:40.792Z,10.93
2023-03-06T16:20:42.867Z,12.68
2023-03-06T16:23:11.843Z,14.82
2023-03-06T16:25:43.078Z,19.08
2023-03-06T16:28:14.641Z,18.10
2023-03-06T16:30:44.980Z,16.17
2023-03-06T16:33:14.350Z,17.73
2023-03-06T16:35:46.463Z,20.30
2023-03-06T16:38:16.208Z,17.85
2023-03-06T16:40:44.927Z,17.38
2023-03-06T16:43:16.004Z,24.42
2023-03-06T16:45:44.792Z,20.33
2023-03-06T16:48:17.683Z,16.02
2023-03-06T16:50:47.534Z,22.00
2023-03-06T16:53:16.372Z,20.85
2023-03-06T16:55:44.590Z,15.95
2023-03-06T16:58:13.213Z,25.52
2023-03-06T17:00:42.167Z,15.43
2023-03-06T17:03:10.713Z,14.50
2023-03-06T17:05:39.465Z,16.65
2023-03-06T17:08:09.007Z,15.98
2023-03-06T17:10:39.876Z,12.95
2023-03-06T17:13:08.498Z,16.15
2023-03-06T17:15:37.306Z,19.02
2023-03-06T17:18:06.171Z,19.80
2023-03-06T17:20:34.751Z,15.55
2023-03-06T17:23:03.249Z,15.43
2023-03-06T17:25:34.872Z,19.38
2023-03-06T17:28:03.425Z,12.88
2023-03-06T17:30:31.931Z,16.10
2023-03-06T17:33:00.720Z,10.10
2023-03-06T17:35:29.047Z,16.25
2023-03-06T17:37:58.506Z,12.27
2023-03-06T17:40:26.731Z,17.02
2023-03-06T17:42:56.298Z,15.30
2023-03-06T17:45:24.790Z,14.18
2023-03-06T17:47:55.711Z,15.25
2023-03-06T17:50:24.238Z,13.63
2023-03-06T17:52:52.721Z,15.77
2023-03-06T17:55:21.344Z,17.80
2023-03-06T17:57:52.224Z,17.02
2023-03-06T18:00:23.630Z,17.30
2023-03-06T18:02:52.215Z,16.95
2023-03-06T18:05:21.737Z,17.10
2023-03-06T18:07:50.305Z,16.88
2023-03-06T18:10:19.002Z,26.33
2023-03-06T18:12:47.263Z,17.73
2023-03-06T18:15:15.493Z,19.58
2023-03-06T18:17:45.062Z,18.55
2023-03-06T18:20:13.889Z,24.98
2023-03-06T18:22:42.456Z,19.85
2023-03-06T18:25:11.322Z,20.48
2023-03-06T18:27:39.811Z,19.70
2023-03-06T18:30:09.689Z,22.02
2023-03-06T18:32:38.268Z,18.48
2023-03-06T18:35:09.659Z,21.38
2023-03-06T18:37:38.435Z,21.65
2023-03-06T18:40:08.488Z,25.42
2023-03-06T18:42:37.132Z,21.10
2023-03-06T18:45:06.220Z,22.00
2023-03-06T18:47:34.755Z,26.27
2023-03-06T18:50:03.534Z,20.30
2023-03-06T18:52:34.196Z,20.08
2023-03-06T18:55:02.796Z,22.30
2023-03-06T18:57:31.001Z,19.90
2023-03-06T18:59:59.577Z,15.98
2023-03-06T19:02:28.177Z,20.02
2023-03-06T19:04:57.986Z,21.05
2023-03-06T19:07:26.468Z,18.70
2023-03-06T19:09:56.052Z,18.48
2023-03-06T19:12:24.597Z,19.20
2023-03-06T19:14:53.088Z,21.90
2023-03-06T19:17:23.432Z,12.52
2023-03-06T19:19:52.851Z,20.20
2023-03-06T19:22:22.049Z,16.85
2023-03-06T19:24:50.743Z,17.77
2023-03-06T19:27:20.431Z,22.70
2023-03-06T19:29:48.944Z,19.13
2023-03-06T19:32:17.546Z,27.08
2023-03-06T19:34:49.076Z,25.15
2023-03-06T19:37:17.283Z,20.38
2023-03-06T19:39:45.910Z,25.63
2023-03-06T19:42:14.485Z,23.10
2023-03-06T19:44:44.254Z,21.90
2023-03-06T19:47:12.764Z,25.13
2023-03-06T19:49:41.453Z,20.58
2023-03-06T19:52:10.024Z,19.38
2023-03-06T19:54:38.704Z,14.77
2023-03-06T19:57:07.308Z,16.30
2023-03-06T19:59:35.789Z,17.38
2023-03-06T20:02:05.462Z,21.17
2023-03-06T20:04:34.456Z,27.50
2023-03-06T20:07:04.735Z,18.33
2023-03-06T20:09:33.242Z,21.15
2023-03-06T20:12:01.794Z,18.77
2023-03-06T20:14:30.799Z,18.77
2023-03-06T20:16:59.067Z,18.98
2023-03-06T20:19:28.857Z,21.00
2023-03-06T20:21:57.379Z,20.95
2023-03-06T20:24:25.990Z,22.45
2023-03-06T20:26:57.471Z,24.23
2023-03-06T20:29:28.374Z,23.95
2023-03-06T20:31:58.264Z,24.77
2023-03-06T20:34:28.374Z,16.63
2023-03-06T20:36:57.861Z,22.27
2023-03-06T20:39:26.455Z,16.60
2023-03-06T20:41:58.171Z,26.20
2023-03-06T20:44:29.769Z,18.10
2023-03-06T20:46:58.294Z,19.50
2023-03-06T20:49:28.404Z,13.90
2023-03-06T20:51:57.038Z,19.13
2023-03-06T20:54:25.529Z,25.90
2023-03-06T20:56:54.035Z,20.17
2023-03-06T20:59:23.685Z,19.73
2023-03-06T21:01:52.256Z,16.65
2023-03-06T21:04:20.765Z,22.35
2023-03-06T21:06:53.162Z,28.25
2023-03-06T21:09:21.766Z,23.60
2023-03-06T21:11:50.719Z,25.90
2023-03-06T21:14:19.285Z,23.55
2023-03-06T21:16:47.819Z,22.55
2023-03-06T21:19:16.757Z,23.25
2023-03-06T21:21:45.278Z,30.45
2023-03-06T21:24:14.854Z,23.35
2023-03-06T21:26:43.386Z,27.48
2023-03-06T21:29:11.968Z,24.30
2023-03-06T21:31:40.940Z,28.27
2023-03-06T21:34:11.366Z,25.20
2023-03-06T21:36:39.580Z,21.75
2023-03-06T21:39:08.382Z,19.70
2023-03-06T21:41:38.179Z,25.95
2023-03-06T21:44:08.018Z,26.73
2023-03-06T21:46:36.718Z,25.98
2023-03-06T21:49:06.330Z,18.10
2023-03-06T21:51:34.951Z,23.23
2023-03-06T21:54:04.125Z,24.83
2023-03-06T21:56:33.466Z,28.00
2023-03-06T21:59:03.158Z,29.15
2023-03-06T22:01:31.682Z,25.98
2023-03-06T22:04:00.809Z,25.40
2023-03-06T22:06:31.238Z,26.95
2023-03-06T22:09:00.966Z,25.25
2023-03-06T22:11:31.217Z,23.17
2023-03-06T22:13:59.617Z,27.73
2023-03-06T22:16:29.871Z,25.50
2023-03-06T22:18:58.751Z,27.80
2023-03-06T22:21:27.256Z,20.83
2023-03-06T22:23:58.388Z,31.75
2023-03-06T22:26:28.480Z,34.92
2023-03-06T22:28:57.254Z,26.42
2023-03-06T22:31:28.399Z,30.85
2023-03-06T22:34:00.760Z,25.80
2023-03-06T22:36:31.344Z,22.45
2023-03-06T22:39:02.445Z,33.97
2023-03-06T22:41:31.614Z,31.48
2023-03-06T22:44:01.419Z,25.83
2023-03-06T22:46:30.395Z,31.83
2023-03-06T22:49:01.030Z,32.13
2023-03-06T22:51:30.408Z,22.45
2023-03-06T22:53:59.089Z,22.15
2023-03-06T22:56:27.365Z,25.77
2023-03-06T22:58:57.496Z,26.05
2023-03-06T23:01:28.043Z,34.75
2023-03-06T23:04:00.080Z,21.88
2023-03-06T23:06:31.332Z,28.08
2023-03-06T23:09:03.717Z,31.13
2023-03-06T23:11:32.420Z,26.25
2023-03-06T23:14:20.712Z,18.80
2023-03-06T23:17:08.514Z,34.72
2023-03-06T23:19:56.557Z,28.45
2023-03-06T23:22:44.237Z,22.77
2023-03-06T23:25:31.218Z,25.83
2023-03-06T23:27:59.781Z,25.85
2023-03-06T23:30:28.386Z,26.00
2023-03-06T23:32:56.998Z,25.55
2023-03-06T23:35:26.686Z,35.03
2023-03-06T23:37:55.206Z,30.17
2023-03-06T23:40:24.022Z,27.92
2023-03-06T23:42:52.682Z,27.55
2023-03-06T23:45:21.816Z,28.02
2023-03-06T23:47:50.346Z,27.10
2023-03-06T23:50:19.141Z,29.70
2023-03-06T23:52:48.810Z,17.55
2023-03-06T23:55:17.559Z,29.80
2023-03-06T23:57:46.306Z,20.80
